createdAt,value
2022-10-13T00:01:33.893Z,7.38
2022-10-13T00:03:37.141Z,7.31
2022-10-13T00:05:41.273Z,7.22
2022-10-13T00:07:44.394Z,7.21
2022-10-13T00:09:45.865Z,7.05
2022-10-13T00:11:47.180Z,6.93
2022-10-13T00:13:49.979Z,6.88
2022-10-13T00:15:51.551Z,6.88
2022-10-13T00:17:53.032Z,6.73
2022-10-13T00:19:55.662Z,6.77
2022-10-13T00:21:57.144Z,6.75
2022-10-13T00:23:58.463Z,6.73
2022-10-13T00:26:03.367Z,6.76
2022-10-13T00:28:04.799Z,6.82
2022-10-13T00:30:06.690Z,6.89
2022-10-13T00:32:08.161Z,7.05
2022-10-13T00:34:09.658Z,7.08
2022-10-13T00:36:12.773Z,6.89
2022-10-13T00:38:15.042Z,6.80
2022-10-13T00:40:16.540Z,6.92
2022-10-13T00:42:18.134Z,6.88
2022-10-13T00:45:08.815Z,6.98
2022-10-13T00:47:10.459Z,6.82
2022-10-13T00:49:13.982Z,6.68
2022-10-13T00:51:20.287Z,6.64
2022-10-13T00:53:24.130Z,6.50
2022-10-13T00:55:29.395Z,6.48
2022-10-13T00:57:31.358Z,6.49
2022-10-13T00:59:32.862Z,6.59
2022-10-13T01:01:34.832Z,6.55
2022-10-13T01:03:37.131Z,6.51
2022-10-13T01:05:40.389Z,6.80
2022-10-13T01:07:43.968Z,6.80
2022-10-13T01:09:45.479Z,6.78
2022-10-13T01:11:53.065Z,6.72
2022-10-13T01:14:01.962Z,6.68
2022-10-13T01:16:13.160Z,6.81
2022-10-13T01:18:22.226Z,7.04
2022-10-13T01:21:01.694Z,6.97
2022-10-13T01:23:22.160Z,6.88
2022-10-13T01:25:42.997Z,6.78
2022-10-13T01:28:00.117Z,6.64
2022-10-13T01:30:13.070Z,6.63
2022-10-13T01:32:21.127Z,6.60
2022-10-13T01:34:31.710Z,6.51
2022-10-13T01:36:37.951Z,6.49
2022-10-13T01:38:46.361Z,6.54
2022-10-13T01:40:51.996Z,6.46
2022-10-13T01:42:58.435Z,6.52
2022-10-13T01:45:02.252Z,6.47
2022-10-13T01:47:07.760Z,6.45
2022-10-13T01:49:12.404Z,6.68
2022-10-13T01:51:18.187Z,6.95
2022-10-13T01:53:20.893Z,6.94
2022-10-13T01:55:22.568Z,6.87
2022-10-13T01:57:30.596Z,6.86
2022-10-13T01:59:34.142Z,6.82
2022-10-13T02:01:51.334Z,6.80
2022-10-13T02:04:03.380Z,6.82
2022-10-13T02:06:16.291Z,6.83
2022-10-13T02:08:25.127Z,6.90
2022-10-13T02:10:31.389Z,7.08
2022-10-13T02:12:38.149Z,7.24
2022-10-13T02:14:42.380Z,7.08
2022-10-13T02:16:46.000Z,6.97
2022-10-13T02:18:47.933Z,6.94
2022-10-13T02:20:51.022Z,6.97
2022-10-13T02:22:58.593Z,6.95
2022-10-13T02:25:00.120Z,6.94
2022-10-13T02:27:01.454Z,7.01
2022-10-13T02:29:09.156Z,7.04
2022-10-13T02:31:10.695Z,7.00
2022-10-13T02:33:12.420Z,6.78
2022-10-13T02:35:13.993Z,6.68
2022-10-13T02:37:17.138Z,6.56
2022-10-13T02:39:18.590Z,6.47
2022-10-13T02:41:20.035Z,6.56
2022-10-13T02:43:21.539Z,6.78
2022-10-13T02:45:23.029Z,6.58
2022-10-13T02:47:24.576Z,6.43
2022-10-13T02:49:25.938Z,6.40
2022-10-13T02:51:27.428Z,6.36
2022-10-13T02:53:29.827Z,6.38
2022-10-13T02:55:32.737Z,6.31
2022-10-13T02:57:34.390Z,6.39
2022-10-13T02:59:35.848Z,6.37
2022-10-13T03:01:37.398Z,6.42
2022-10-13T03:03:38.868Z,6.40
2022-10-13T03:05:40.348Z,6.45
2022-10-13T03:07:42.124Z,6.21
2022-10-13T03:09:43.575Z,6.27
2022-10-13T03:11:46.375Z,6.15
2022-10-13T03:13:47.849Z,6.10
2022-10-13T03:15:49.462Z,6.11
2022-10-13T03:17:51.036Z,6.30
2022-10-13T03:19:52.564Z,6.38
2022-10-13T03:21:53.897Z,6.29
2022-10-13T03:23:55.373Z,6.23
2022-10-13T03:25:56.743Z,6.23
2022-10-13T03:27:59.697Z,6.28
2022-10-13T03:30:01.181Z,6.22
2022-10-13T03:32:02.514Z,6.35
2022-10-13T03:34:03.956Z,6.26
2022-10-13T03:36:06.378Z,6.23
2022-10-13T03:38:08.239Z,6.21
2022-10-13T03:40:10.916Z,6.16
2022-10-13T03:42:12.350Z,6.13
2022-10-13T03:44:15.221Z,6.12
2022-10-13T03:46:17.824Z,6.14
2022-10-13T03:48:19.375Z,6.46
2022-10-13T03:50:20.902Z,6.41
2022-10-13T03:52:22.960Z,6.25
2022-10-13T03:54:24.425Z,6.23
2022-10-13T03:56:26.648Z,6.35
2022-10-13T03:58:28.490Z,6.36
2022-10-13T04:00:31.272Z,6.35
2022-10-13T04:02:32.740Z,6.25
2022-10-13T04:04:34.048Z,6.14
2022-10-13T04:06:35.573Z,6.26
2022-10-13T04:08:37.103Z,6.35
2022-10-13T04:10:38.977Z,6.39
2022-10-13T04:12:40.428Z,6.33
2022-10-13T04:14:41.710Z,6.38
2022-10-13T04:16:44.530Z,6.46
2022-10-13T04:18:50.091Z,6.53
2022-10-13T04:20:51.568Z,6.68
2022-10-13T04:22:52.876Z,6.54
2022-10-13T04:24:54.346Z,6.36
2022-10-13T04:26:55.662Z,6.51
2022-10-13T04:28:57.136Z,6.52
2022-10-13T04:30:58.594Z,6.64
2022-10-13T04:33:01.500Z,6.62
2022-10-13T04:35:03.503Z,6.67
2022-10-13T04:37:04.985Z,6.73
2022-10-13T04:39:06.288Z,6.76
2022-10-13T04:41:08.761Z,6.74
2022-10-13T04:43:10.323Z,6.75
2022-10-13T04:45:11.677Z,6.72
2022-10-13T04:47:13.184Z,6.75
2022-10-13T04:49:15.834Z,6.72
2022-10-13T04:51:19.314Z,6.83
2022-10-13T04:53:20.749Z,6.80
2022-10-13T04:55:22.203Z,6.83
2022-10-13T04:57:23.659Z,6.80
2022-10-13T04:59:25.290Z,6.87
2022-10-13T05:01:27.015Z,6.85
2022-10-13T05:03:29.057Z,6.84
2022-10-13T05:05:34.874Z,6.95
2022-10-13T05:07:36.325Z,6.89
2022-10-13T05:09:38.036Z,6.81
2022-10-13T05:11:39.502Z,6.89
2022-10-13T05:13:40.800Z,6.94
2022-10-13T05:15:42.298Z,6.91
2022-10-13T05:17:43.587Z,6.80
2022-10-13T05:19:45.052Z,6.75
2022-10-13T05:21:47.939Z,6.86
2022-10-13T05:23:49.806Z,6.90
2022-10-13T05:25:51.248Z,6.94
2022-10-13T05:27:53.009Z,6.92
2022-10-13T05:29:54.475Z,6.93
2022-10-13T05:31:55.987Z,6.96
2022-10-13T05:33:57.319Z,6.96
2022-10-13T05:36:03.779Z,6.98
2022-10-13T05:38:06.608Z,6.98
2022-10-13T05:40:09.205Z,7.02
2022-10-13T05:42:10.815Z,7.01
2022-10-13T05:44:12.380Z,6.83
2022-10-13T05:46:14.031Z,6.74
2022-10-13T05:48:15.531Z,6.82
2022-10-13T05:50:17.037Z,6.88
2022-10-13T05:52:18.983Z,6.97
2022-10-13T05:54:25.328Z,7.10
2022-10-13T05:56:33.149Z,7.14
2022-10-13T05:58:39.222Z,7.26
2022-10-13T06:00:42.999Z,7.34
2022-10-13T06:02:49.672Z,7.19
2022-10-13T06:04:54.962Z,7.15
2022-10-13T06:06:56.567Z,7.32
2022-10-13T06:08:58.445Z,7.23
2022-10-13T06:11:02.787Z,7.23
2022-10-13T06:13:04.205Z,7.10
2022-10-13T06:15:06.754Z,7.17
2022-10-13T06:17:08.475Z,7.20
2022-10-13T06:19:09.923Z,7.26
2022-10-13T06:21:11.387Z,7.28
2022-10-13T06:23:12.839Z,7.39
2022-10-13T06:25:14.513Z,7.24
2022-10-13T06:27:17.312Z,7.30
2022-10-13T06:29:18.809Z,7.31
2022-10-13T06:31:21.501Z,7.29
2022-10-13T06:33:23.034Z,7.20
2022-10-13T06:35:24.500Z,7.15
2022-10-13T06:37:27.508Z,7.17
2022-10-13T06:39:29.150Z,7.24
2022-10-13T06:41:30.672Z,7.38
2022-10-13T06:43:39.841Z,7.45
2022-10-13T06:45:42.004Z,7.57
2022-10-13T06:47:43.314Z,7.68
2022-10-13T06:49:44.765Z,7.70
2022-10-13T06:51:46.032Z,7.79
2022-10-13T06:53:47.578Z,7.87
2022-10-13T06:55:52.302Z,7.89
2022-10-13T06:57:53.979Z,7.96
2022-10-13T06:59:56.804Z,8.07
2022-10-13T07:01:58.255Z,8.08
2022-10-13T07:03:59.561Z,8.14
2022-10-13T07:06:01.254Z,8.20
2022-10-13T07:08:02.722Z,8.13
2022-10-13T07:10:04.252Z,8.13
2022-10-13T07:12:06.247Z,8.18
2022-10-13T07:14:07.690Z,8.18
2022-10-13T07:16:11.023Z,7.97
2022-10-13T07:18:12.487Z,7.98
2022-10-13T07:20:13.821Z,8.05
2022-10-13T07:22:15.376Z,8.12
2022-10-13T07:24:16.713Z,8.37
2022-10-13T07:26:18.209Z,8.42
2022-10-13T07:28:19.579Z,8.71
2022-10-13T07:30:21.786Z,8.94
2022-10-13T07:32:24.672Z,9.10
2022-10-13T07:34:26.162Z,9.22
2022-10-13T07:36:28.016Z,9.16
2022-10-13T07:38:30.137Z,9.05
2022-10-13T07:40:31.698Z,9.12
2022-10-13T07:42:33.492Z,9.10
2022-10-13T07:44:34.961Z,9.33
2022-10-13T07:46:36.253Z,9.37
2022-10-13T07:48:39.357Z,9.58
2022-10-13T07:50:40.772Z,9.54
2022-10-13T07:52:42.062Z,9.74
2022-10-13T07:54:44.182Z,9.85
2022-10-13T07:56:45.855Z,9.84
2022-10-13T07:58:48.025Z,10.14
2022-10-13T08:00:56.051Z,10.37
2022-10-13T08:02:57.521Z,10.42
2022-10-13T08:05:00.196Z,10.60
2022-10-13T08:07:02.110Z,10.76
2022-10-13T08:09:04.320Z,10.98
2022-10-13T08:11:07.532Z,11.27
2022-10-13T08:13:10.432Z,11.33
2022-10-13T08:15:12.064Z,11.36
2022-10-13T08:17:19.988Z,11.44
2022-10-13T08:19:21.611Z,11.55
2022-10-13T08:21:57.699Z,11.41
2022-10-13T08:23:46.744Z,11.67
2022-10-13T08:25:48.277Z,11.96
2022-10-13T08:27:51.358Z,12.14
2022-10-13T08:29:53.975Z,12.21
2022-10-13T08:31:55.603Z,12.39
2022-10-13T08:33:57.097Z,12.35
2022-10-13T08:35:58.699Z,12.35
2022-10-13T08:38:01.548Z,12.59
2022-10-13T08:40:03.404Z,12.76
2022-10-13T08:42:14.725Z,12.88
2022-10-13T08:45:05.887Z,13.00
2022-10-13T08:46:50.705Z,12.96
2022-10-13T08:48:52.686Z,13.10
2022-10-13T08:50:59.442Z,13.16
2022-10-13T08:53:07.307Z,13.22
2022-10-13T08:55:13.518Z,13.22
2022-10-13T08:57:15.159Z,13.39
2022-10-13T08:59:18.041Z,13.48
2022-10-13T09:01:23.054Z,13.55
2022-10-13T09:03:26.826Z,13.48
2022-10-13T09:05:41.154Z,13.36
2022-10-13T09:07:46.181Z,13.37
2022-10-13T09:09:51.511Z,13.46
2022-10-13T09:11:52.988Z,13.52
2022-10-13T09:13:55.954Z,13.49
2022-10-13T09:15:58.267Z,13.41
2022-10-13T09:18:10.050Z,13.43
2022-10-13T09:20:19.684Z,13.55
2022-10-13T09:22:24.107Z,13.49
2022-10-13T09:24:27.176Z,13.66
2022-10-13T09:26:30.057Z,13.75
2022-10-13T09:28:32.987Z,13.72
2022-10-13T09:30:36.421Z,13.67
2022-10-13T09:32:37.911Z,13.50
2022-10-13T09:34:39.528Z,13.54
2022-10-13T09:36:55.855Z,13.48
2022-10-13T09:39:12.653Z,13.59
2022-10-13T09:41:19.438Z,13.79
2022-10-13T09:43:28.951Z,13.75
2022-10-13T09:45:30.667Z,13.65
2022-10-13T09:47:32.242Z,13.74
2022-10-13T09:49:37.090Z,14.04
2022-10-13T09:51:41.453Z,13.91
2022-10-13T09:53:47.274Z,13.97
2022-10-13T09:55:48.799Z,14.02
2022-10-13T09:57:53.375Z,13.99
2022-10-13T10:00:04.253Z,13.99
2022-10-13T10:02:21.239Z,14.16
2022-10-13T10:04:31.858Z,14.22
2022-10-13T10:06:34.630Z,14.13
2022-10-13T10:09:01.698Z,14.35
2022-10-13T10:11:05.729Z,14.35
2022-10-13T10:13:10.795Z,14.48
2022-10-13T10:15:23.684Z,14.86
2022-10-13T10:17:32.154Z,15.05
2022-10-13T10:19:47.691Z,15.15
2022-10-13T10:21:53.709Z,15.29
2022-10-13T10:23:59.804Z,15.15
2022-10-13T10:26:05.387Z,15.12
2022-10-13T10:28:27.454Z,15.06
2022-10-13T10:30:35.220Z,14.93
2022-10-13T10:32:43.344Z,15.08
2022-10-13T10:34:50.517Z,14.91
2022-10-13T10:37:04.279Z,15.12
2022-10-13T10:39:19.028Z,15.04
2022-10-13T10:41:35.512Z,15.16
2022-10-13T10:43:44.810Z,15.07
2022-10-13T10:45:48.029Z,14.88
2022-10-13T10:47:54.229Z,14.83
2022-10-13T10:50:01.952Z,14.94
2022-10-13T10:52:08.218Z,14.95
2022-10-13T10:54:23.028Z,14.88
2022-10-13T10:56:31.662Z,14.91
2022-10-13T10:58:41.311Z,15.00
2022-10-13T11:00:53.829Z,15.23
2022-10-13T11:03:02.429Z,15.14
2022-10-13T11:05:06.318Z,15.22
2022-10-13T11:07:12.042Z,15.30
2022-10-13T11:09:13.572Z,15.46
2022-10-13T11:11:37.871Z,15.64
2022-10-13T11:13:51.641Z,15.62
2022-10-13T11:15:54.561Z,15.67
2022-10-13T11:17:56.119Z,15.82
2022-10-13T11:19:58.469Z,15.92
2022-10-13T11:22:22.928Z,15.92
2022-10-13T11:24:49.644Z,15.86
2022-10-13T11:26:51.181Z,16.00
2022-10-13T11:28:52.828Z,16.03
2022-10-13T11:30:57.303Z,16.04
2022-10-13T11:32:58.862Z,16.11
2022-10-13T11:35:13.970Z,16.15
2022-10-13T11:37:16.975Z,16.19
2022-10-13T11:39:58.604Z,16.11
2022-10-13T11:42:10.222Z,16.27
2022-10-13T11:44:21.643Z,16.28
2022-10-13T11:46:26.986Z,16.50
2022-10-13T11:48:47.991Z,16.50
2022-10-13T11:50:58.759Z,16.59
2022-10-13T11:53:10.368Z,16.60
2022-10-13T11:55:17.412Z,16.69
2022-10-13T11:57:21.092Z,16.90
2022-10-13T11:59:25.968Z,16.75
2022-10-13T12:01:28.783Z,16.65
2022-10-13T12:03:32.174Z,16.70
2022-10-13T12:05:33.640Z,16.66
2022-10-13T12:07:39.357Z,16.56
2022-10-13T12:09:49.736Z,16.62
2022-10-13T12:11:57.422Z,16.52
2022-10-13T12:14:00.689Z,16.53
2022-10-13T12:16:04.180Z,16.49
2022-10-13T12:18:21.616Z,16.60
2022-10-13T12:20:25.627Z,16.75
2022-10-13T12:22:28.183Z,16.57
2022-10-13T12:24:30.444Z,16.59
2022-10-13T12:26:32.000Z,16.76
2022-10-13T12:28:48.519Z,16.89
2022-10-13T12:30:52.456Z,16.83
2022-10-13T12:32:55.718Z,17.00
2022-10-13T12:35:10.958Z,16.96
2022-10-13T12:37:18.471Z,16.88
2022-10-13T12:39:20.553Z,16.83
2022-10-13T12:41:26.139Z,16.87
2022-10-13T12:43:27.649Z,16.77
2022-10-13T12:45:32.860Z,16.38
2022-10-13T12:47:48.090Z,16.20
2022-10-13T12:49:49.595Z,16.14
2022-10-13T12:51:56.147Z,16.19
2022-10-13T12:53:57.750Z,16.18
2022-10-13T12:56:01.786Z,16.15
2022-10-13T12:58:03.421Z,15.96
2022-10-13T13:00:05.780Z,15.77
2022-10-13T13:02:21.206Z,15.77
2022-10-13T13:04:31.303Z,15.88
2022-10-13T13:06:35.990Z,16.09
2022-10-13T13:08:39.651Z,16.10
2022-10-13T13:10:53.929Z,16.02
2022-10-13T13:12:55.714Z,16.03
2022-10-13T13:14:57.246Z,15.95
2022-10-13T13:17:03.177Z,15.98
2022-10-13T13:19:04.670Z,16.00
2022-10-13T13:21:06.904Z,16.00
2022-10-13T13:23:08.384Z,16.08
2022-10-13T13:25:11.224Z,15.98
2022-10-13T13:27:23.093Z,16.08
2022-10-13T13:29:26.223Z,16.04
2022-10-13T13:31:27.833Z,15.96
2022-10-13T13:33:29.311Z,15.90
2022-10-13T13:35:30.997Z,15.86
2022-10-13T13:37:37.457Z,15.94
2022-10-13T13:39:38.971Z,15.86
2022-10-13T13:41:42.028Z,15.91
2022-10-13T13:43:43.576Z,15.82
2022-10-13T13:45:45.104Z,15.80
2022-10-13T13:47:46.973Z,15.78
2022-10-13T13:49:50.018Z,15.85
2022-10-13T13:51:51.472Z,15.87
2022-10-13T13:53:52.914Z,16.00
2022-10-13T13:55:54.425Z,16.13
2022-10-13T13:57:57.952Z,16.17
2022-10-13T13:59:59.451Z,16.24
2022-10-13T14:02:01.483Z,16.31
2022-10-13T14:04:02.939Z,16.48
2022-10-13T14:06:05.487Z,16.64
2022-10-13T14:08:07.522Z,16.57
2022-10-13T14:10:10.374Z,16.70
2022-10-13T14:12:12.200Z,16.71
2022-10-13T14:14:15.425Z,16.69
2022-10-13T14:16:17.703Z,16.69
2022-10-13T14:18:19.355Z,16.74
2022-10-13T14:20:21.969Z,16.68
2022-10-13T14:22:23.659Z,16.61
2022-10-13T14:24:25.325Z,16.37
2022-10-13T14:26:26.954Z,16.40
2022-10-13T14:28:28.460Z,16.28
2022-10-13T14:30:31.353Z,16.18
2022-10-13T14:32:33.245Z,15.99
2022-10-13T14:34:34.717Z,15.94
2022-10-13T14:36:36.216Z,15.91
2022-10-13T14:38:37.711Z,15.90
2022-10-13T14:40:40.809Z,15.96
2022-10-13T14:42:42.246Z,15.94
2022-10-13T14:44:43.805Z,15.88
2022-10-13T14:46:46.619Z,15.85
2022-10-13T14:48:48.592Z,15.87
2022-10-13T14:50:50.089Z,15.88
2022-10-13T14:52:51.575Z,15.96
2022-10-13T14:54:53.150Z,15.99
2022-10-13T14:56:54.658Z,16.04
2022-10-13T14:58:57.588Z,15.88
2022-10-13T15:00:59.066Z,15.82
2022-10-13T15:03:01.989Z,15.72
2022-10-13T15:05:04.047Z,15.70
2022-10-13T15:07:05.639Z,15.66
2022-10-13T15:11:09.772Z,15.60
2022-10-13T15:13:11.544Z,15.43
2022-10-13T15:15:13.260Z,15.33
2022-10-13T15:17:14.849Z,15.25
2022-10-13T15:19:18.774Z,15.15
2022-10-13T15:21:20.854Z,15.06
2022-10-13T15:23:22.310Z,14.97
2022-10-13T15:25:23.794Z,14.95
2022-10-13T15:27:25.345Z,14.79
2022-10-13T15:29:26.848Z,14.73
2022-10-13T15:31:28.735Z,14.68
2022-10-13T15:33:30.385Z,14.64
2022-10-13T15:35:33.266Z,14.48
2022-10-13T15:37:34.727Z,14.52
2022-10-13T15:39:36.597Z,14.45
2022-10-13T15:41:38.043Z,14.40
2022-10-13T15:43:39.499Z,14.33
2022-10-13T15:45:41.387Z,14.29
2022-10-13T15:47:42.827Z,14.22
2022-10-13T15:49:44.313Z,14.12
2022-10-13T15:51:47.468Z,14.05
2022-10-13T15:53:48.937Z,13.98
2022-10-13T15:55:50.592Z,14.00
2022-10-13T15:57:52.188Z,14.02
2022-10-13T15:59:53.726Z,14.05
2022-10-13T16:01:55.287Z,14.05
2022-10-13T16:03:57.102Z,13.96
2022-10-13T16:06:02.246Z,13.93
2022-10-13T16:08:05.201Z,13.87
2022-10-13T16:10:07.641Z,13.89
2022-10-13T16:12:09.098Z,13.82
2022-10-13T16:14:10.645Z,13.78
2022-10-13T16:16:12.286Z,13.66
2022-10-13T16:18:13.727Z,13.66
2022-10-13T16:20:15.175Z,13.67
2022-10-13T16:22:16.720Z,13.66
2022-10-13T16:24:19.593Z,13.59
2022-10-13T16:26:21.263Z,13.52
2022-10-13T16:28:22.830Z,13.49
2022-10-13T16:30:24.590Z,13.44
2022-10-13T16:32:26.167Z,13.35
2022-10-13T16:34:27.927Z,13.31
2022-10-13T16:36:29.413Z,13.26
2022-10-13T16:38:31.053Z,13.22
2022-10-13T16:40:33.895Z,13.19
2022-10-13T16:42:35.377Z,13.17
2022-10-13T16:44:36.979Z,13.06
2022-10-13T16:46:38.802Z,13.06
2022-10-13T16:48:41.522Z,13.07
2022-10-13T16:50:42.987Z,13.07
2022-10-13T16:52:44.717Z,13.09
2022-10-13T16:54:46.476Z,13.02
2022-10-13T16:56:49.307Z,13.03
2022-10-13T16:58:55.848Z,12.99
2022-10-13T17:01:02.944Z,12.97
2022-10-13T17:03:05.009Z,12.94
2022-10-13T17:05:06.843Z,12.92
2022-10-13T17:07:08.341Z,12.88
2022-10-13T17:09:10.669Z,12.92
2022-10-13T17:11:16.854Z,12.87
2022-10-13T17:13:19.658Z,12.88
2022-10-13T17:15:21.125Z,12.89
2022-10-13T17:17:23.022Z,12.86
2022-10-13T17:19:24.760Z,12.87
2022-10-13T17:21:26.482Z,12.80
2022-10-13T17:23:29.580Z,12.81
2022-10-13T17:25:33.846Z,12.72
2022-10-13T17:27:35.701Z,12.66
2022-10-13T17:29:38.575Z,12.72
2022-10-13T17:31:40.099Z,12.63
2022-10-13T17:33:42.749Z,12.55
2022-10-13T17:35:44.397Z,12.39
2022-10-13T17:37:49.146Z,12.39
2022-10-13T17:39:50.815Z,12.35
2022-10-13T17:41:52.436Z,12.26
2022-10-13T17:43:53.913Z,12.26
2022-10-13T17:46:31.105Z,12.20
2022-10-13T17:48:28.635Z,12.18
2022-10-13T17:50:30.097Z,12.16
2022-10-13T17:52:31.553Z,12.14
2022-10-13T17:54:33.037Z,12.11
2022-10-13T17:56:34.499Z,12.08
2022-10-13T17:58:36.810Z,12.02
2022-10-13T18:01:00.633Z,11.99
2022-10-13T18:03:01.143Z,11.95
2022-10-13T18:05:02.979Z,11.90
2022-10-13T18:07:04.474Z,11.87
2022-10-13T18:09:07.456Z,11.79
2022-10-13T18:11:11.127Z,11.75
2022-10-13T18:13:12.695Z,11.69
2022-10-13T18:15:14.417Z,11.62
2022-10-13T18:17:15.945Z,11.52
2022-10-13T18:19:19.188Z,11.55
2022-10-13T18:21:22.620Z,11.55
2022-10-13T18:23:24.048Z,11.52
2022-10-13T18:25:25.503Z,11.51
2022-10-13T18:27:26.974Z,11.49
2022-10-13T18:29:28.656Z,11.50
2022-10-13T18:31:32.080Z,11.45
2022-10-13T18:33:33.627Z,11.44
2022-10-13T18:35:36.461Z,11.38
2022-10-13T18:37:38.215Z,11.37
2022-10-13T18:39:39.681Z,11.36
2022-10-13T18:41:41.875Z,11.31
2022-10-13T18:43:43.426Z,11.31
2022-10-13T18:45:44.883Z,11.30
2022-10-13T18:47:50.434Z,11.23
2022-10-13T18:49:51.926Z,11.15
2022-10-13T18:51:54.732Z,11.17
2022-10-13T18:53:56.793Z,11.13
2022-10-13T18:56:03.261Z,11.18
2022-10-13T18:58:04.754Z,11.16
2022-10-13T19:00:07.353Z,11.14
2022-10-13T19:02:09.421Z,11.11
2022-10-13T19:04:11.299Z,11.12
2022-10-13T19:06:14.490Z,11.14
2022-10-13T19:08:17.375Z,11.09
2022-10-13T19:10:18.994Z,11.21
2022-10-13T19:12:20.545Z,11.26
2022-10-13T19:14:22.040Z,11.28
2022-10-13T19:16:24.977Z,11.28
2022-10-13T19:18:26.657Z,11.20
2022-10-13T19:20:28.209Z,11.22
2022-10-13T19:22:29.665Z,11.26
2022-10-13T19:24:32.556Z,11.24
2022-10-13T19:26:35.688Z,11.28
2022-10-13T19:28:37.400Z,11.27
2022-10-13T19:30:39.386Z,11.25
2022-10-13T19:32:41.106Z,11.28
2022-10-13T19:34:42.591Z,11.22
2022-10-13T19:36:45.641Z,11.23
2022-10-13T19:38:47.190Z,11.13
2022-10-13T19:40:50.182Z,11.11
2022-10-13T19:42:51.576Z,11.06
2022-10-13T19:44:52.890Z,11.00
2022-10-13T19:46:54.612Z,10.92
2022-10-13T19:48:56.054Z,10.96
2022-10-13T19:51:00.269Z,10.90
2022-10-13T19:53:01.766Z,10.92
2022-10-13T19:55:03.881Z,10.86
2022-10-13T19:57:06.806Z,10.82
2022-10-13T19:59:08.323Z,10.69
2022-10-13T20:01:09.885Z,10.72
2022-10-13T20:03:12.357Z,10.74
2022-10-13T20:05:13.826Z,10.71
2022-10-13T20:07:15.128Z,10.75
2022-10-13T20:09:17.463Z,10.73
2022-10-13T20:11:23.790Z,10.73
2022-10-13T20:13:27.193Z,10.81
2022-10-13T20:15:28.619Z,10.79
2022-10-13T20:17:29.964Z,10.75
2022-10-13T20:19:31.482Z,10.75
2022-10-13T20:21:32.989Z,10.75
2022-10-13T20:23:35.051Z,10.70
2022-10-13T20:25:36.993Z,10.73
2022-10-13T20:27:38.442Z,10.71
2022-10-13T20:29:41.073Z,10.65
2022-10-13T20:31:44.916Z,10.55
2022-10-13T20:33:47.184Z,10.50
2022-10-13T20:35:48.791Z,10.54
2022-10-13T20:37:50.513Z,10.42
2022-10-13T20:39:53.926Z,10.38
2022-10-13T20:41:55.385Z,10.33
2022-10-13T20:43:59.493Z,10.28
2022-10-13T20:46:04.970Z,10.31
2022-10-13T20:48:06.479Z,10.29
2022-10-13T20:50:08.502Z,10.19
2022-10-13T20:52:10.214Z,10.17
2022-10-13T20:54:13.689Z,10.18
2022-10-13T20:56:17.932Z,10.14
2022-10-13T20:58:19.422Z,10.12
2022-10-13T21:00:21.067Z,10.10
2022-10-13T21:02:23.859Z,10.06
2022-10-13T21:04:25.353Z,10.07
2022-10-13T21:06:26.940Z,10.09
2022-10-13T21:08:29.034Z,10.07
2022-10-13T21:10:30.807Z,10.01
2022-10-13T21:12:32.340Z,10.01
2022-10-13T21:14:33.839Z,9.94
2022-10-13T21:16:36.272Z,9.98
2022-10-13T21:18:39.287Z,10.02
2022-10-13T21:20:40.760Z,9.94
2022-10-13T21:22:43.979Z,9.97
2022-10-13T21:24:45.422Z,9.96
2022-10-13T21:26:46.693Z,9.90
2022-10-13T21:28:48.538Z,9.85
2022-10-13T21:30:59.380Z,9.83
2022-10-13T21:33:00.927Z,9.80
2022-10-13T21:35:04.315Z,9.82
2022-10-13T21:37:05.771Z,9.98
2022-10-13T21:39:07.085Z,9.98
2022-10-13T21:41:10.395Z,9.92
2022-10-13T21:43:11.868Z,9.83
2022-10-13T21:45:13.402Z,9.76
2022-10-13T21:47:14.919Z,9.76
2022-10-13T21:49:16.411Z,9.65
2022-10-13T21:51:20.801Z,9.67
2022-10-13T21:53:22.309Z,9.65
2022-10-13T21:55:24.043Z,9.70
2022-10-13T21:57:25.600Z,9.66
2022-10-13T21:59:27.241Z,9.62
2022-10-13T22:01:29.020Z,9.55
2022-10-13T22:03:30.870Z,9.57
2022-10-13T22:05:32.379Z,9.49
2022-10-13T22:07:35.197Z,9.49
2022-10-13T22:09:36.869Z,9.47
2022-10-13T22:11:39.205Z,9.42
2022-10-13T22:13:41.076Z,9.44
2022-10-13T22:15:42.585Z,9.43
2022-10-13T22:17:44.097Z,9.37
2022-10-13T22:19:45.597Z,9.41
2022-10-13T22:21:48.957Z,9.38
2022-10-13T22:23:51.915Z,9.38
2022-10-13T22:25:53.384Z,9.36
2022-10-13T22:27:54.680Z,9.33
2022-10-13T22:29:56.155Z,9.37
2022-10-13T22:31:57.586Z,9.34
2022-10-13T22:33:59.905Z,9.36
2022-10-13T22:36:06.354Z,9.35
2022-10-13T22:38:07.857Z,9.32
2022-10-13T22:40:11.746Z,9.42
2022-10-13T22:42:13.327Z,9.50
2022-10-13T22:44:16.814Z,9.44
2022-10-13T22:46:20.198Z,9.41
2022-10-13T22:48:21.807Z,9.43
2022-10-13T22:50:23.245Z,9.31
2022-10-13T22:52:24.566Z,9.30
2022-10-13T22:54:26.318Z,9.34
2022-10-13T22:56:31.222Z,9.35
2022-10-13T22:58:32.713Z,9.31
2022-10-13T23:00:34.597Z,9.24
2022-10-13T23:02:36.289Z,9.16
2022-10-13T23:04:38.095Z,9.13
2022-10-13T23:06:39.673Z,9.09
2022-10-13T23:08:43.644Z,9.13
2022-10-13T23:10:45.049Z,9.17
2022-10-13T23:12:47.699Z,9.12
2022-10-13T23:14:49.125Z,9.12
2022-10-13T23:16:50.449Z,9.15
2022-10-13T23:18:52.455Z,9.09
2022-10-13T23:20:56.892Z,9.03
2022-10-13T23:22:58.587Z,8.98
2022-10-13T23:24:59.912Z,8.98
2022-10-13T23:27:01.440Z,8.97
2022-10-13T23:29:04.951Z,8.96
2022-10-13T23:31:10.216Z,8.98
2022-10-13T23:33:11.708Z,8.97
2022-10-13T23:35:13.382Z,8.94
2022-10-13T23:37:14.861Z,8.84
2022-10-13T23:39:16.170Z,8.82
2022-10-13T23:41:17.606Z,8.87
2022-10-13T23:43:19.172Z,8.84
2022-10-13T23:45:22.031Z,8.84
2022-10-13T23:47:23.822Z,8.90
2022-10-13T23:49:25.574Z,8.85
2022-10-13T23:51:27.145Z,8.81
2022-10-13T23:53:28.428Z,8.80
2022-10-13T23:55:30.174Z,8.78
2022-10-13T23:57:31.661Z,8.66
2022-10-13T23:59:32.978Z,8.70
